| time (UTC) | temp C | wind direction | speed KPH | gust KPH | rain 1hr cm | rain 24hr cm | rain mn cm | humidity % | barometer mb |
| 20260906213033 | 33 | 0.0 | 6.4 | 0.00 | 0.00 | 0.00 | 32 | 1002.6 | |
| 20260906211505 | 32 | 0.0 | 6.4 | 0.00 | 0.00 | 0.00 | 36 | 1002.9 | |
| 20260906210039 | 31 | 0.0 | 8.0 | 0.00 | 0.00 | 0.00 | 38 | 1003.0 | |
| 20260906204504 | 30 | 1.6 | 12.9 | 0.00 | 0.00 | 0.00 | 39 | 1003.3 | |
| 20260906203023 | 30 | 3.2 | 12.9 | 0.00 | 0.00 | 0.00 | 39 | 1003.4 | |
| 20260906201518 | 29 | 4.8 | 9.7 | 0.00 | 0.00 | 0.00 | 39 | 1003.4 | |
| 20260906200038 | 29 | 4.8 | 11.3 | 0.00 | 0.00 | 0.00 | 38 | 1003.7 | |
| 20260906194551 | 28 | 4.8 | 9.7 | 0.00 | 0.00 | 0.00 | 40 | 1003.7 | |
| 20260906193019 | 28 | 4.8 | 9.7 | 0.00 | 0.00 | 0.00 | 40 | 1003.7 | |
| 20260906191541 | 28 | 4.8 | 9.7 | 0.00 | 0.00 | 0.00 | 43 | 1003.9 | |
| 20260906190110 | 28 | 4.8 | 11.3 | 0.00 | 0.00 | 0.00 | 42 | 1004.2 | |
| 20260906184504 | 27 | 3.2 | 8.0 | 0.00 | 0.00 | 0.00 | 45 | 1004.6 | |
| 20260906183043 | 27 | 0.0 | 3.2 | 0.00 | 0.00 | 0.00 | 48 | 1004.8 | |
| 20260906181601 | 27 | 0.0 | 4.8 | 0.00 | 0.00 | 0.00 | 49 | 1005.1 | |
| 20260906180012 | 26 | 3.2 | 8.0 | 0.00 | 0.00 | 0.00 | 52 | 1005.4 | |
| 20260906174532 | 25 | 1.6 | 8.0 | 0.00 | 0.00 | 0.00 | 54 | 1005.7 | |
| 20260906173051 | 25 | 0.0 | 3.2 | 0.00 | 0.00 | 0.00 | 58 | 1006.1 | |
| 20260906171507 | 23 | 1.6 | 9.7 | 0.00 | 0.00 | 0.00 | 59 | 1006.3 | |
| 20260906170033 | 23 | 0.0 | 4.8 | 0.00 | 0.00 | 0.00 | 62 | 1006.7 | |
| 20260906164550 | 23 | 0.0 | 8.0 | 0.00 | 0.00 | 0.00 | 64 | 1006.6 | |
| 20260906163003 | 22 | 0.0 | 6.4 | 0.00 | 0.00 | 0.00 | 65 | 1006.5 | |
| 20260906161524 | 22 | 0.0 | 6.4 | 0.00 | 0.00 | 0.00 | 64 | 1006.7 | |
| 20260906160033 | 22 | 4.8 | 8.0 | 0.00 | 0.00 | 0.00 | 65 | 1006.7 | |
| 20260906154505 | 21 | 1.6 | 6.4 | 0.00 | 0.00 | 0.00 | 66 | 1006.9 | |
| 20260906153027 | 21 | 1.6 | 8.0 | 0.00 | 0.00 | 0.00 | 69 | 1007.0 | |
| 20260906151533 | 20 | 1.6 | 4.8 | 0.00 | 0.00 | 0.00 | 70 | 1007.1 | |
| 20260906150057 | 19 | 1.6 | 6.4 | 0.00 | 0.00 | 0.00 | 72 | 1007.3 | |
| 20260906144506 | 20 | 3.2 | 6.4 | 0.00 | 0.00 | 0.00 | 71 | 1007.3 | |
| 20260906143033 | 19 | 1.6 | 6.4 | 0.00 | 0.00 | 0.00 | 73 | 1007.3 | |
| 20260906141550 | 18 | 1.6 | 4.8 | 0.00 | 0.00 | 0.00 | 75 | 1007.3 | |
| 20260906140005 | 17 | 0.0 | 3.2 | 0.00 | 0.00 | 0.00 | 75 | 1007.5 | |
| 20260906134537 | 17 | 1.6 | 4.8 | 0.00 | 0.00 | 0.00 | 74 | 1007.4 | |
| 20260906133056 | 16 | 0.0 | 1.6 | 0.00 | 0.00 | 0.00 | 73 | 1007.3 | |
| 20260906131506 | 16 | 0.0 | 1.6 | 0.00 | 0.00 | 0.00 | 74 | 1007.3 | |
| 20260906130024 | 16 | 0.0 | 1.6 | 0.00 | 0.00 | 0.00 | 73 | 1007.1 | |
| 20260906124537 | 16 | 0.0 | 0.0 | 0.00 | 0.00 | 0.00 | 73 | 1007.0 | |
| 20260906123057 | 16 | 0.0 | 1.6 | 0.00 | 0.00 | 0.00 | 73 | 1007.0 | |
| 20260906121511 | 16 | 0.0 | 0.0 | 0.00 | 0.00 | 0.00 | 73 | 1006.9 | |
| 20260906120042 | 16 | 0.0 | 1.6 | 0.00 | 0.00 | 0.00 | 73 | 1006.9 | |
| 20260906114610 | 16 | 0.0 | 1.6 | 0.00 | 0.00 | 0.00 | 73 | 1006.8 | |
| 20260906113015 | 17 | 0.0 | 0.0 | 0.00 | 0.00 | 0.00 | 73 | 1006.6 | |
| 20260906111537 | 17 | 0.0 | 1.6 | 0.00 | 0.00 | 0.00 | 74 | 1006.6 | |
| 20260906110051 | 17 | 0.0 | 8.0 | 0.00 | 0.00 | 0.00 | 74 | 1006.5 | |
| 20260906104527 | 18 | 0.0 | 4.8 | 0.00 | 0.00 | 0.00 | 74 | 1006.3 | |
| 20260906103035 | 18 | 1.6 | 6.4 | 0.00 | 0.00 | 0.00 | 74 | 1006.3 | |
| 20260906101549 | 18 | 0.0 | 3.2 | 0.00 | 0.00 | 0.00 | 75 | 1006.5 | |
| 20260906100002 | 18 | 0.0 | 4.8 | 0.00 | 0.00 | 0.00 | 74 | 1006.5 | |
| 20260906094520 | 18 | 0.0 | 3.2 | 0.00 | 0.00 | 0.00 | 73 | 1006.5 | |
| 20260906093058 | 18 | 0.0 | 3.2 | 0.00 | 0.00 | 0.00 | 72 | 1006.1 | |
| 20260906091535 | 18 | 0.0 | 0.0 | 0.00 | 0.00 | 0.00 | 72 | 1006.0 | |
| 20260906090100 | 18 | 0.0 | 1.6 | 0.00 | 0.00 | 0.00 | 71 | 1005.9 | |
| 20260906084535 | 18 | 0.0 | 1.6 | 0.00 | 0.00 | 0.00 | 70 | 1005.9 | |
| 20260906083006 | 18 | 0.0 | 3.2 | 0.00 | 0.00 | 0.00 | 70 | 1006.0 | |
| 20260906081534 | 18 | 0.0 | 1.6 | 0.00 | 0.00 | 0.00 | 70 | 1006.1 | |
| 20260906080045 | 18 | 0.0 | 1.6 | 0.00 | 0.00 | 0.00 | 68 | 1006.2 | |
| 20260906074603 | 18 | 0.0 | 4.8 | 0.00 | 0.00 | 0.00 | 66 | 1006.0 | |
| 20260906073018 | 19 | 0.0 | 4.8 | 0.00 | 0.00 | 0.00 | 65 | 1005.9 | |
| 20260906071546 | 19 | 0.0 | 6.4 | 0.00 | 0.00 | 0.00 | 64 | 1005.9 | |
| 20260906070014 | 19 | 1.6 | 6.4 | 0.00 | 0.00 | 0.00 | 65 | 1005.9 | |
| 20260906064532 | 19 | 0.0 | 0.0 | 0.00 | 0.00 | 0.00 | 62 | 1006.0 | |
| 20260906063046 | 19 | 0.0 | 1.6 | 0.00 | 0.00 | 0.00 | 60 | 1006.0 | |
| 20260906061605 | 19 | 0.0 | 0.0 | 0.00 | 0.00 | 0.00 | 60 | 1006.1 | |
| 20260906060016 | 20 | 0.0 | 3.2 | 0.00 | 0.00 | 0.00 | 58 | 1005.8 | |
| 20260906054549 | 21 | 0.0 | 3.2 | 0.00 | 0.00 | 0.00 | 56 | 1005.5 | |
| 20260906053058 | 21 | 0.0 | 1.6 | 0.00 | 0.00 | 0.00 | 52 | 1005.6 | |
| 20260906051511 | 21 | 0.0 | 6.4 | 0.00 | 0.00 | 0.00 | 50 | 1005.8 | |
| 20260906050029 | 21 | 1.6 | 6.4 | 0.00 | 0.00 | 0.00 | 49 | 1005.3 | |
| 20260906044553 | 21 | 0.0 | 0.0 | 0.00 | 0.00 | 0.00 | 48 | 1005.2 | |
| 20260906043008 | 21 | 0.0 | 1.6 | 0.00 | 0.00 | 0.00 | 46 | 1004.8 | |
| 20260906041525 | 22 | 0.0 | 3.2 | 0.00 | 0.00 | 0.00 | 44 | 1004.5 | |
| 20260906040113 | 22 | 0.0 | 3.2 | 0.00 | 0.00 | 0.00 | 44 | 1004.5 | |
| 20260906034518 | 23 | 0.0 | 6.4 | 0.00 | 0.00 | 0.00 | 42 | 1004.4 | |
| 20260906033055 | 23 | 1.6 | 4.8 | 0.00 | 0.00 | 0.00 | 40 | 1004.1 | |
| 20260906031609 | 23 | 0.0 | 4.8 | 0.00 | 0.00 | 0.00 | 39 | 1004.1 | |
| 20260906030017 | 24 | 0.0 | 3.2 | 0.00 | 0.00 | 0.00 | 38 | 1004.0 | |
| 20260906024537 | 24 | 0.0 | 3.2 | 0.00 | 0.00 | 0.00 | 40 | 1003.9 | |
| 20260906023157 | 24 | 0.0 | 1.6 | 0.00 | 0.00 | 0.00 | 38 | 1003.9 | |
| 20260906021503 | 25 | 0.0 | 1.6 | 0.00 | 0.00 | 0.00 | 37 | 1003.6 | |
| 20260906020043 | 25 | 0.0 | 3.2 | 0.00 | 0.00 | 0.00 | 36 | 1003.4 | |
| 20260906014606 | 26 | 0.0 | 1.6 | 0.00 | 0.00 | 0.00 | 34 | 1003.2 | |
| 20260906013008 | 27 | 1.6 | 11.3 | 0.00 | 0.00 | 0.00 | 32 | 1002.9 | |
| 20260906011528 | 27 | 1.6 | 8.0 | 0.00 | 0.00 | 0.00 | 31 | 1002.9 | |
| 20260906010043 | 28 | 3.2 | 11.3 | 0.00 | 0.00 | 0.00 | 29 | 1003.0 | |
| 20260906004509 | 28 | 6.4 | 14.5 | 0.00 | 0.00 | 0.00 | 28 | 1003.0 | |
| 20260906003025 | 29 | 4.8 | 12.9 | 0.00 | 0.00 | 0.00 | 27 | 1003.0 | |
| 20260906001541 | 30 | 8.0 | 17.7 | 0.00 | 0.00 | 0.00 | 24 | 1002.8 | |
| 20260906000059 | 32 | 0.0 | 4.8 | 0.00 | 0.00 | 0.00 | 21 | 1002.7 | |
| 20260905234509 | 32 | 1.6 | 6.4 | 0.00 | 0.00 | 0.00 | 21 | 1002.5 | |
| 20260905233042 | 32 | 0.0 | 1.6 | 0.00 | 0.00 | 0.00 | 22 | 1002.5 | |
| 20260905231556 | 32 | 0.0 | 4.8 | 0.00 | 0.00 | 0.00 | 21 | 1002.2 | |
| 20260905230010 | 32 | 1.6 | 6.4 | 0.00 | 0.00 | 0.00 | 21 | 1002.0 | |
| 20260905224536 | 33 | 1.6 | 6.4 | 0.00 | 0.00 | 0.00 | 20 | 1001.9 | |
| 20260905223009 | 35 | 0.0 | 3.2 | 0.00 | 0.00 | 0.00 | 18 | 1001.9 | |
| 20260905221546 | 33 | 1.6 | 9.7 | 0.00 | 0.00 | 0.00 | 19 | 1002.0 | |
| 20260905220002 | 34 | 3.2 | 9.7 | 0.00 | 0.00 | 0.00 | 18 | 1002.0 | |
| 20260905214517 | 33 | 3.2 | 12.9 | 0.00 | 0.00 | 0.00 | 19 | 1002.3 |